createdAt,value
2023-04-15T00:01:06.585Z,6.24
2023-04-15T00:03:34.682Z,6.23
2023-04-15T00:06:02.381Z,6.36
2023-04-15T00:08:30.094Z,6.30
2023-04-15T00:10:56.948Z,6.29
2023-04-15T00:13:23.789Z,6.25
2023-04-15T00:15:50.739Z,6.29
2023-04-15T00:18:18.224Z,6.29
2023-04-15T00:20:45.001Z,6.26
2023-04-15T00:23:11.882Z,6.16
2023-04-15T00:25:38.703Z,6.28
2023-04-15T00:28:05.574Z,6.37
2023-04-15T00:30:32.730Z,6.36
2023-04-15T00:32:59.828Z,6.25
2023-04-15T00:35:26.893Z,6.16
2023-04-15T00:37:53.984Z,6.05
2023-04-15T00:40:24.764Z,5.88
2023-04-15T00:42:52.585Z,6.07
2023-04-15T00:45:19.684Z,5.97
2023-04-15T00:47:46.818Z,5.95
2023-04-15T00:50:13.774Z,5.89
2023-04-15T00:52:41.170Z,5.84
2023-04-15T00:55:11.360Z,5.85
2023-04-15T00:57:40.565Z,5.88
2023-04-15T01:00:08.950Z,5.89
2023-04-15T01:02:37.097Z,5.78
2023-04-15T01:05:05.171Z,5.79
2023-04-15T01:07:32.387Z,5.85
2023-04-15T01:09:59.680Z,5.76
2023-04-15T01:12:29.372Z,5.55
2023-04-15T01:14:57.144Z,5.44
2023-04-15T01:17:25.554Z,5.49
2023-04-15T01:19:52.937Z,5.45
2023-04-15T01:22:19.770Z,5.37
2023-04-15T01:25:14.619Z,5.25
2023-04-15T01:27:42.513Z,5.25
2023-04-15T01:30:10.605Z,5.36
2023-04-15T01:32:38.137Z,5.38
2023-04-15T01:35:05.390Z,5.20
2023-04-15T01:37:33.018Z,5.32
2023-04-15T01:39:59.762Z,5.42
2023-04-15T01:42:27.920Z,5.63
2023-04-15T01:44:55.147Z,5.43
2023-04-15T01:47:22.449Z,5.40
2023-04-15T01:49:49.382Z,5.49
2023-04-15T01:52:16.254Z,5.59
2023-04-15T01:54:43.250Z,5.64
2023-04-15T01:57:10.198Z,5.60
2023-04-15T01:59:37.317Z,5.63
2023-04-15T02:02:04.692Z,5.61
2023-04-15T02:04:31.840Z,5.67
2023-04-15T02:06:58.634Z,5.60
2023-04-15T02:09:25.595Z,5.60
2023-04-15T02:11:54.286Z,5.56
2023-04-15T02:14:21.384Z,5.55
2023-04-15T02:16:48.474Z,5.58
2023-04-15T02:19:15.478Z,5.53
2023-04-15T02:21:42.315Z,5.52
2023-04-15T02:24:09.185Z,5.44
2023-04-15T02:26:36.200Z,5.46
2023-04-15T02:29:03.966Z,5.46
2023-04-15T02:31:34.042Z,5.45
2023-04-15T02:34:03.288Z,5.44
2023-04-15T02:36:31.641Z,5.38
2023-04-15T02:38:58.962Z,5.31
2023-04-15T02:41:28.041Z,5.39
2023-04-15T02:43:55.346Z,5.43
2023-04-15T02:46:22.840Z,5.35
2023-04-15T02:48:50.999Z,5.27
2023-04-15T02:51:21.498Z,5.20
2023-04-15T02:53:49.825Z,5.17
2023-04-15T02:56:17.996Z,5.07
2023-04-15T02:58:45.851Z,5.19
2023-04-15T03:01:14.525Z,5.22
2023-04-15T03:03:41.510Z,5.27
2023-04-15T03:06:09.032Z,5.31
2023-04-15T03:08:36.441Z,5.21
2023-04-15T03:11:03.914Z,5.13
2023-04-15T03:13:31.094Z,5.13
2023-04-15T03:15:57.896Z,5.08
2023-04-15T03:18:24.720Z,5.13
2023-04-15T03:20:51.879Z,4.93
2023-04-15T03:23:18.697Z,4.87
2023-04-15T03:25:46.149Z,5.01
2023-04-15T03:28:12.900Z,5.00
2023-04-15T03:30:39.658Z,4.98
2023-04-15T03:33:06.972Z,4.95
2023-04-15T03:35:34.458Z,4.96
2023-04-15T03:38:02.428Z,4.99
2023-04-15T03:40:31.073Z,4.87
2023-04-15T03:42:57.851Z,4.79
2023-04-15T03:45:25.468Z,4.71
2023-04-15T03:47:52.548Z,4.60
2023-04-15T03:50:19.548Z,4.59
2023-04-15T03:52:46.415Z,4.78
2023-04-15T03:55:13.324Z,4.85
2023-04-15T03:57:40.444Z,4.88
2023-04-15T04:00:12.062Z,4.89
2023-04-15T04:02:39.265Z,4.94
2023-04-15T04:05:06.555Z,4.83
2023-04-15T04:07:33.388Z,4.70
2023-04-15T04:10:00.165Z,4.68
2023-04-15T04:12:26.892Z,4.57
2023-04-15T04:14:53.677Z,4.51
2023-04-15T04:17:20.574Z,4.38
2023-04-15T04:19:47.386Z,4.39
2023-04-15T04:22:14.204Z,4.36
2023-04-15T04:24:40.932Z,4.41
2023-04-15T04:27:07.794Z,4.41
2023-04-15T04:29:34.605Z,4.39
2023-04-15T04:32:01.381Z,4.37
2023-04-15T04:34:28.176Z,4.33
2023-04-15T04:36:55.078Z,4.30
2023-04-15T04:39:21.855Z,4.36
2023-04-15T04:41:48.554Z,4.15
2023-04-15T04:44:15.877Z,4.21
2023-04-15T04:46:42.618Z,4.29
2023-04-15T04:49:09.504Z,4.17
2023-04-15T04:51:36.756Z,4.17
2023-04-15T04:54:04.315Z,4.32
2023-04-15T04:56:31.119Z,4.37
2023-04-15T04:58:57.938Z,4.35
2023-04-15T05:01:26.542Z,4.37
2023-04-15T05:03:53.706Z,4.34
2023-04-15T05:06:20.730Z,4.27
2023-04-15T05:08:48.256Z,4.21
2023-04-15T05:11:15.271Z,4.15
2023-04-15T05:13:42.165Z,4.06
2023-04-15T05:16:09.444Z,4.03
2023-04-15T05:18:36.819Z,4.00
2023-04-15T05:21:03.845Z,4.05
2023-04-15T05:23:30.962Z,4.10
2023-04-15T05:25:57.736Z,4.19
2023-04-15T05:28:24.620Z,4.19
2023-04-15T05:30:51.768Z,4.13
2023-04-15T05:33:19.033Z,4.13
2023-04-15T05:35:46.280Z,4.06
2023-04-15T05:38:13.146Z,4.03
2023-04-15T05:40:39.911Z,4.04
2023-04-15T05:43:06.731Z,4.12
2023-04-15T05:45:33.572Z,4.09
2023-04-15T05:48:00.434Z,4.03
2023-04-15T05:50:27.373Z,4.12
2023-04-15T05:52:55.958Z,4.10
2023-04-15T05:55:22.755Z,4.13
2023-04-15T05:57:49.748Z,4.18
2023-04-15T06:00:16.677Z,4.21
2023-04-15T06:02:43.757Z,4.17
2023-04-15T06:05:11.751Z,4.24
2023-04-15T06:07:39.148Z,4.23
2023-04-15T06:10:07.677Z,4.34
2023-04-15T06:12:34.654Z,4.36
2023-04-15T06:15:01.622Z,4.38
2023-04-15T06:17:28.537Z,4.54
2023-04-15T06:19:56.002Z,4.64
2023-04-15T06:22:23.981Z,4.54
2023-04-15T06:24:51.480Z,4.67
2023-04-15T06:27:18.806Z,4.77
2023-04-15T06:29:45.777Z,4.92
2023-04-15T06:32:12.996Z,5.01
2023-04-15T06:34:39.888Z,5.08
2023-04-15T06:37:07.014Z,5.12
2023-04-15T06:39:33.802Z,5.17
2023-04-15T06:42:01.358Z,5.25
2023-04-15T06:44:29.078Z,5.38
2023-04-15T06:46:55.818Z,5.55
2023-04-15T06:49:22.819Z,5.68
2023-04-15T06:51:49.711Z,5.84
2023-04-15T06:54:16.486Z,6.03
2023-04-15T06:56:43.322Z,6.19
2023-04-15T06:59:11.323Z,6.34
2023-04-15T07:01:38.085Z,6.46
2023-04-15T07:04:05.295Z,6.65
2023-04-15T07:06:32.694Z,6.84
2023-04-15T07:08:59.799Z,6.92
2023-04-15T07:11:27.358Z,7.02
2023-04-15T07:13:54.156Z,7.24
2023-04-15T07:16:21.287Z,7.39
2023-04-15T07:18:48.125Z,7.57
2023-04-15T07:21:14.935Z,7.69
2023-04-15T07:23:42.683Z,7.87
2023-04-15T07:26:10.944Z,8.07
2023-04-15T07:28:37.783Z,8.26
2023-04-15T07:31:04.786Z,8.48
2023-04-15T07:33:31.589Z,8.66
2023-04-15T07:35:58.317Z,8.87
2023-04-15T07:38:25.973Z,9.10
2023-04-15T07:40:53.160Z,9.32
2023-04-15T07:43:21.253Z,9.59
2023-04-15T07:45:48.945Z,9.74
2023-04-15T07:48:16.054Z,9.95
2023-04-15T07:50:42.925Z,10.07
2023-04-15T07:53:09.767Z,10.20
2023-04-15T07:55:36.530Z,10.39
2023-04-15T07:58:03.428Z,10.62
2023-04-15T08:00:30.493Z,10.86
2023-04-15T08:02:59.268Z,11.09
2023-04-15T08:05:26.145Z,11.34
2023-04-15T08:07:53.013Z,11.57
2023-04-15T08:10:20.559Z,11.72
2023-04-15T08:12:49.522Z,11.93
2023-04-15T08:15:16.788Z,12.14
2023-04-15T08:17:43.665Z,12.41
2023-04-15T08:20:11.451Z,12.48
2023-04-15T08:22:38.355Z,12.36
2023-04-15T08:25:05.722Z,12.19
2023-04-15T08:27:32.805Z,12.07
2023-04-15T08:29:59.639Z,12.06
2023-04-15T08:32:27.158Z,12.23
2023-04-15T08:34:54.106Z,12.47
2023-04-15T08:37:21.210Z,12.65
2023-04-15T08:39:48.597Z,12.84
2023-04-15T08:42:27.712Z,13.07
2023-04-15T08:44:56.178Z,13.24
2023-04-15T08:47:28.464Z,13.37
2023-04-15T08:49:58.169Z,13.39
2023-04-15T08:52:31.642Z,13.39
2023-04-15T08:55:00.346Z,13.44
2023-04-15T08:57:32.154Z,13.48
2023-04-15T08:59:59.086Z,13.49
2023-04-15T09:02:27.517Z,13.49
2023-04-15T09:04:54.853Z,13.49
2023-04-15T09:07:21.737Z,13.64
2023-04-15T09:09:48.952Z,13.78
2023-04-15T09:12:17.104Z,13.92
2023-04-15T09:14:47.158Z,14.00
2023-04-15T09:17:18.472Z,14.20
2023-04-15T09:19:45.276Z,14.36
2023-04-15T09:22:13.091Z,14.42
2023-04-15T09:24:42.167Z,14.32
2023-04-15T09:27:09.512Z,14.23
2023-04-15T09:29:37.073Z,14.32
2023-04-15T09:32:12.835Z,14.45
2023-04-15T09:34:39.730Z,14.43
2023-04-15T09:37:07.845Z,14.67
2023-04-15T09:39:52.668Z,15.03
2023-04-15T09:42:26.969Z,15.32
2023-04-15T09:44:54.112Z,15.75
2023-04-15T09:47:30.113Z,16.06
2023-04-15T09:49:59.726Z,16.25
2023-04-15T09:52:29.065Z,16.11
2023-04-15T09:54:58.885Z,16.14
2023-04-15T09:57:34.421Z,16.14
2023-04-15T10:00:01.306Z,16.09
2023-04-15T10:02:30.486Z,15.85
2023-04-15T10:04:57.806Z,15.67
2023-04-15T10:07:26.378Z,15.38
2023-04-15T10:09:54.105Z,15.32
2023-04-15T10:12:22.772Z,15.31
2023-04-15T10:14:59.256Z,15.29
2023-04-15T10:17:33.682Z,15.22
2023-04-15T10:20:04.632Z,15.18
2023-04-15T10:22:33.075Z,15.16
2023-04-15T10:25:01.146Z,15.24
2023-04-15T10:27:28.996Z,15.40
2023-04-15T10:29:57.452Z,15.42
2023-04-15T10:32:26.304Z,15.76
2023-04-15T10:34:55.515Z,16.15
2023-04-15T10:37:33.938Z,16.27
2023-04-15T10:40:00.950Z,16.29
2023-04-15T10:42:35.416Z,16.33
2023-04-15T10:45:02.531Z,16.32
2023-04-15T10:47:32.654Z,16.45
2023-04-15T10:50:02.321Z,16.56
2023-04-15T10:52:29.711Z,16.48
2023-04-15T10:55:14.301Z,16.33
2023-04-15T10:57:43.116Z,16.11
2023-04-15T11:00:17.452Z,16.06
2023-04-15T11:02:56.513Z,16.06
2023-04-15T11:05:53.800Z,16.02
2023-04-15T11:08:54.068Z,15.86
2023-04-15T11:11:21.204Z,15.84
2023-04-15T11:13:51.365Z,15.91
2023-04-15T11:16:18.651Z,16.20
2023-04-15T11:18:55.872Z,16.44
2023-04-15T11:21:26.555Z,16.81
2023-04-15T11:23:53.430Z,16.92
2023-04-15T11:26:26.949Z,16.90
2023-04-15T11:28:54.559Z,17.00
2023-04-15T11:31:23.796Z,17.22
2023-04-15T11:34:01.439Z,17.36
2023-04-15T11:36:31.753Z,17.74
2023-04-15T11:39:00.244Z,17.59
2023-04-15T11:41:27.254Z,17.77
2023-04-15T11:43:54.091Z,18.80
2023-04-15T11:46:22.867Z,19.37
2023-04-15T11:48:49.922Z,18.92
2023-04-15T11:51:16.889Z,18.97
2023-04-15T11:53:52.557Z,19.92
2023-04-15T11:56:23.066Z,20.10
2023-04-15T11:58:58.646Z,20.80
2023-04-15T12:01:39.252Z,20.92
2023-04-15T12:04:32.704Z,20.47
2023-04-15T12:07:06.578Z,20.48
2023-04-15T12:09:38.625Z,21.26
2023-04-15T12:12:05.534Z,20.66
2023-04-15T12:14:34.788Z,19.58
2023-04-15T12:17:06.654Z,19.04
2023-04-15T12:19:42.964Z,20.05
2023-04-15T12:22:12.998Z,19.94
2023-04-15T12:24:44.078Z,20.00
2023-04-15T12:27:16.337Z,20.37
2023-04-15T12:29:43.869Z,21.22
2023-04-15T12:32:16.271Z,21.82
2023-04-15T12:34:54.523Z,22.10
2023-04-15T12:37:21.664Z,21.99
2023-04-15T12:39:50.122Z,22.04
2023-04-15T12:42:18.377Z,21.35
2023-04-15T12:44:45.907Z,20.73
2023-04-15T12:47:13.519Z,20.56
2023-04-15T12:49:41.256Z,20.94
2023-04-15T12:52:08.998Z,19.83
2023-04-15T12:54:36.361Z,18.81
2023-04-15T12:57:06.822Z,18.19
2023-04-15T12:59:34.726Z,18.12
2023-04-15T13:02:03.098Z,18.22
2023-04-15T13:04:32.899Z,17.95
2023-04-15T13:07:02.001Z,17.91
2023-04-15T13:09:28.841Z,18.19
2023-04-15T13:11:57.399Z,18.04
2023-04-15T13:14:24.244Z,17.92
2023-04-15T13:16:51.192Z,17.59
2023-04-15T13:19:18.039Z,17.46
2023-04-15T13:21:44.883Z,17.68
2023-04-15T13:24:11.692Z,17.93
2023-04-15T13:26:38.542Z,17.80
2023-04-15T13:29:05.447Z,17.53
2023-04-15T13:31:32.555Z,17.30
2023-04-15T13:33:59.664Z,17.21
2023-04-15T13:36:27.270Z,16.91
2023-04-15T13:38:54.427Z,16.58
2023-04-15T13:41:21.238Z,16.35
2023-04-15T13:43:48.089Z,16.17
2023-04-15T13:46:15.119Z,16.11
2023-04-15T13:48:42.304Z,16.05
2023-04-15T13:51:09.273Z,15.94
2023-04-15T13:53:38.882Z,15.89
2023-04-15T13:56:09.480Z,15.91
2023-04-15T13:58:37.827Z,15.76
2023-04-15T14:01:06.742Z,15.67
2023-04-15T14:03:36.229Z,15.65
2023-04-15T14:06:04.149Z,15.58
2023-04-15T14:08:31.607Z,15.58
2023-04-15T14:10:58.716Z,15.60
2023-04-15T14:13:25.655Z,15.53
2023-04-15T14:15:52.824Z,15.46
2023-04-15T14:18:19.796Z,15.31
2023-04-15T14:20:48.362Z,15.26
2023-04-15T14:23:15.237Z,15.18
2023-04-15T14:25:42.109Z,15.07
2023-04-15T14:28:09.055Z,15.00
2023-04-15T14:30:36.051Z,14.88
2023-04-15T14:33:03.823Z,14.80
2023-04-15T14:35:31.493Z,14.73
2023-04-15T14:37:58.450Z,14.74
2023-04-15T14:40:25.300Z,14.81
2023-04-15T14:42:52.195Z,14.85
2023-04-15T14:45:20.910Z,14.82
2023-04-15T14:47:48.532Z,14.84
2023-04-15T14:50:15.495Z,14.83
2023-04-15T14:52:42.310Z,14.71
2023-04-15T14:55:11.085Z,14.61
2023-04-15T14:57:42.082Z,14.65
2023-04-15T15:00:13.767Z,14.64
2023-04-15T15:02:42.353Z,14.65
2023-04-15T15:05:11.429Z,14.57
2023-04-15T15:07:40.790Z,14.59
2023-04-15T15:10:08.176Z,14.57
2023-04-15T15:12:35.350Z,14.58
2023-04-15T15:15:12.372Z,14.66
2023-04-15T15:17:46.796Z,14.69
2023-04-15T15:20:13.768Z,14.77
2023-04-15T15:22:40.532Z,14.84
2023-04-15T15:25:07.495Z,14.89
2023-04-15T15:27:35.094Z,14.88
2023-04-15T15:30:04.371Z,14.88
2023-04-15T15:32:31.173Z,14.76
2023-04-15T15:34:57.956Z,14.65
2023-04-15T15:37:24.754Z,14.59
2023-04-15T15:39:53.370Z,14.56
2023-04-15T15:42:20.204Z,14.49
2023-04-15T15:44:49.120Z,14.45
2023-04-15T15:47:21.660Z,14.39
2023-04-15T15:49:48.599Z,14.31
2023-04-15T15:52:15.716Z,14.21
2023-04-15T15:54:43.403Z,14.16
2023-04-15T15:57:10.863Z,14.11
2023-04-15T15:59:43.394Z,14.11
2023-04-15T16:02:12.622Z,14.04
2023-04-15T16:04:40.644Z,14.05
2023-04-15T16:07:07.756Z,13.95
2023-04-15T16:09:34.702Z,13.91
2023-04-15T16:12:01.969Z,13.85
2023-04-15T16:14:28.826Z,13.91
2023-04-15T16:16:56.113Z,13.86
2023-04-15T16:19:23.106Z,13.88
2023-04-15T16:21:50.462Z,13.73
2023-04-15T16:24:17.440Z,13.60
2023-04-15T16:26:44.268Z,13.54
2023-04-15T16:29:11.131Z,13.45
2023-04-15T16:31:39.912Z,13.33
2023-04-15T16:34:06.920Z,13.27
2023-04-15T16:36:36.766Z,13.17
2023-04-15T16:39:04.093Z,13.15
2023-04-15T16:41:33.193Z,13.10
2023-04-15T16:44:01.898Z,13.07
2023-04-15T16:46:29.623Z,13.03
2023-04-15T16:48:56.509Z,12.93
2023-04-15T16:51:23.391Z,12.88
2023-04-15T16:53:50.412Z,12.76
2023-04-15T16:56:17.232Z,12.61
2023-04-15T16:58:46.784Z,12.55
2023-04-15T17:01:13.785Z,12.47
2023-04-15T17:03:41.605Z,12.32
2023-04-15T17:06:08.674Z,12.25
2023-04-15T17:08:35.491Z,12.16
2023-04-15T17:11:02.280Z,12.07
2023-04-15T17:13:29.131Z,12.01
2023-04-15T17:15:56.040Z,11.89
2023-04-15T17:18:23.535Z,11.82
2023-04-15T17:20:50.415Z,11.77
2023-04-15T17:23:17.701Z,11.70
2023-04-15T17:25:44.627Z,11.63
2023-04-15T17:28:11.467Z,11.50
2023-04-15T17:30:38.342Z,11.43
2023-04-15T17:33:56.087Z,11.33
2023-04-15T17:35:53.552Z,11.34
2023-04-15T17:38:20.411Z,11.25
2023-04-15T17:40:47.142Z,11.19
2023-04-15T17:43:13.894Z,11.19
2023-04-15T17:45:40.719Z,11.08
2023-04-15T17:48:07.711Z,11.01
2023-04-15T17:50:34.518Z,10.92
2023-04-15T17:53:01.414Z,10.91
2023-04-15T17:55:28.272Z,10.85
2023-04-15T17:57:55.220Z,10.84
2023-04-15T18:00:22.084Z,10.75
2023-04-15T18:02:51.533Z,10.72
2023-04-15T18:05:21.196Z,10.70
2023-04-15T18:07:48.910Z,10.58
2023-04-15T18:10:16.044Z,10.62
2023-04-15T18:12:42.934Z,10.60
2023-04-15T18:15:10.911Z,10.62
2023-04-15T18:17:37.757Z,10.58
2023-04-15T18:20:05.157Z,10.48
2023-04-15T18:22:32.485Z,10.39
2023-04-15T18:25:03.915Z,10.37
2023-04-15T18:27:34.675Z,10.43
2023-04-15T18:30:01.616Z,10.41
2023-04-15T18:32:31.929Z,10.35
2023-04-15T18:34:58.951Z,10.34
2023-04-15T18:37:27.663Z,10.27
2023-04-15T18:39:54.918Z,10.19
2023-04-15T18:42:22.309Z,10.25
2023-04-15T18:44:49.826Z,10.27
2023-04-15T18:47:17.334Z,10.19
2023-04-15T18:49:44.335Z,10.18
2023-04-15T18:52:11.973Z,10.11
2023-04-15T18:54:38.724Z,10.13
2023-04-15T18:57:06.680Z,10.09
2023-04-15T18:59:34.908Z,10.02
2023-04-15T19:02:06.210Z,10.01
2023-04-15T19:04:33.484Z,10.06
2023-04-15T19:07:01.570Z,9.95
2023-04-15T19:09:29.310Z,9.89
2023-04-15T19:11:56.855Z,9.84
2023-04-15T19:14:23.884Z,9.77
2023-04-15T19:16:50.811Z,9.77
2023-04-15T19:19:17.772Z,9.77
2023-04-15T19:21:47.558Z,9.71
2023-04-15T19:24:14.480Z,9.69
2023-04-15T19:26:41.246Z,9.71
2023-04-15T19:29:08.057Z,9.67
2023-04-15T19:31:34.910Z,9.68
2023-04-15T19:34:01.752Z,9.72
2023-04-15T19:36:28.550Z,9.71
2023-04-15T19:38:55.786Z,9.76
2023-04-15T19:41:22.833Z,9.75
2023-04-15T19:43:49.606Z,9.69
2023-04-15T19:46:16.522Z,9.68
2023-04-15T19:48:43.482Z,9.70
2023-04-15T19:51:10.339Z,9.69
2023-04-15T19:53:37.302Z,9.71
2023-04-15T19:56:04.300Z,9.74
2023-04-15T19:58:32.370Z,9.65
2023-04-15T20:01:01.245Z,9.61
2023-04-15T20:03:28.187Z,9.61
2023-04-15T20:05:55.240Z,9.59
2023-04-15T20:08:21.979Z,9.56
2023-04-15T20:10:48.817Z,9.59
2023-04-15T20:13:15.584Z,9.59
2023-04-15T20:15:42.445Z,9.55
2023-04-15T20:18:09.233Z,9.57
2023-04-15T20:20:39.353Z,9.58
2023-04-15T20:23:06.619Z,9.58
2023-04-15T20:25:33.531Z,9.51
2023-04-15T20:28:01.179Z,9.47
2023-04-15T20:30:29.200Z,9.48
2023-04-15T20:32:56.270Z,9.44
2023-04-15T20:35:24.952Z,9.47
2023-04-15T20:37:51.971Z,9.46
2023-04-15T20:40:18.945Z,9.42
2023-04-15T20:42:45.973Z,9.40
2023-04-15T20:45:13.912Z,9.40
2023-04-15T20:47:41.739Z,9.41
2023-04-15T20:50:09.632Z,9.41
2023-04-15T20:52:36.573Z,9.43
2023-04-15T20:55:03.654Z,9.46
2023-04-15T20:57:30.489Z,9.40
2023-04-15T20:59:57.300Z,9.36
2023-04-15T21:02:24.712Z,9.35
2023-04-15T21:04:51.683Z,9.37
2023-04-15T21:07:18.509Z,9.38
2023-04-15T21:09:46.792Z,9.35
2023-04-15T21:12:13.580Z,9.35
2023-04-15T21:14:40.493Z,9.33
2023-04-15T21:17:10.560Z,9.34
2023-04-15T21:19:38.428Z,9.37
2023-04-15T21:22:05.298Z,9.36
2023-04-15T21:24:32.182Z,9.32
2023-04-15T21:26:59.005Z,9.24
2023-04-15T21:29:26.118Z,9.24
2023-04-15T21:31:52.990Z,9.26
2023-04-15T21:34:19.978Z,9.31
2023-04-15T21:36:46.883Z,9.35
2023-04-15T21:39:14.740Z,9.39
2023-04-15T21:41:42.172Z,9.38
2023-04-15T21:44:08.994Z,9.34
2023-04-15T21:46:36.105Z,9.35
2023-04-15T21:49:03.691Z,9.25
2023-04-15T21:51:31.397Z,9.25
2023-04-15T21:53:58.949Z,9.21
2023-04-15T21:56:26.491Z,9.14
2023-04-15T21:58:56.921Z,9.15
2023-04-15T22:01:26.496Z,9.15
2023-04-15T22:03:53.828Z,9.20
2023-04-15T22:06:21.423Z,9.19
2023-04-15T22:09:11.358Z,9.19
2023-04-15T22:11:37.189Z,9.23
2023-04-15T22:14:05.800Z,9.21
2023-04-15T22:16:32.578Z,9.12
2023-04-15T22:18:59.433Z,9.11
2023-04-15T22:21:26.785Z,9.12
2023-04-15T22:24:39.177Z,9.10
2023-04-15T22:26:40.407Z,9.12
2023-04-15T22:29:07.458Z,9.15
2023-04-15T22:31:34.469Z,9.18
2023-04-15T22:34:01.226Z,9.10
2023-04-15T22:36:31.018Z,9.13
2023-04-15T22:38:58.086Z,9.12
2023-04-15T22:41:24.959Z,9.09
2023-04-15T22:43:51.947Z,9.10
2023-04-15T22:46:18.814Z,9.12
2023-04-15T22:48:45.902Z,9.08
2023-04-15T22:51:12.665Z,9.06
2023-04-15T22:53:39.450Z,9.09
2023-04-15T22:56:06.608Z,9.11
2023-04-15T22:58:33.359Z,9.11
2023-04-15T23:01:00.190Z,9.12
2023-04-15T23:03:29.717Z,9.08
2023-04-15T23:06:00.222Z,9.04
2023-04-15T23:08:27.225Z,9.06
2023-04-15T23:10:54.287Z,9.10
2023-04-15T23:13:21.205Z,9.05
2023-04-15T23:15:47.944Z,9.08
2023-04-15T23:18:14.854Z,9.10
2023-04-15T23:20:41.844Z,9.10
2023-04-15T23:23:08.587Z,9.11
2023-04-15T23:25:35.370Z,9.08
2023-04-15T23:28:02.234Z,9.08
2023-04-15T23:30:30.035Z,9.07
2023-04-15T23:32:58.093Z,9.10
2023-04-15T23:35:27.135Z,9.07
2023-04-15T23:37:54.443Z,9.06
2023-04-15T23:40:21.300Z,9.08
2023-04-15T23:42:48.359Z,9.11
2023-04-15T23:45:15.174Z,9.08
2023-04-15T23:47:42.137Z,9.10
2023-04-15T23:50:09.812Z,9.13
2023-04-15T23:52:38.121Z,9.09
2023-04-15T23:55:05.585Z,9.09
2023-04-15T23:57:32.303Z,9.09
